sensor_id;sensor_type;location;lat;lon;timestamp;P1;durP1;ratioP1;P2;durP2;ratioP2
58752;SDS011;44525;46.052;13.610;2023-10-09T00:01:39;15.05;;;10.68;;
58752;SDS011;44525;46.052;13.610;2023-10-09T00:04:09;17.23;;;10.95;;
58752;SDS011;44525;46.052;13.610;2023-10-09T00:06:39;18.13;;;10.63;;
58752;SDS011;44525;46.052;13.610;2023-10-09T00:09:07;16.42;;;10.70;;
58752;SDS011;44525;46.052;13.610;2023-10-09T00:11:47;17.98;;;10.90;;
58752;SDS011;44525;46.052;13.610;2023-10-09T00:14:13;16.35;;;10.50;;
58752;SDS011;44525;46.052;13.610;2023-10-09T00:16:40;18.80;;;10.95;;
58752;SDS011;44525;46.052;13.610;2023-10-09T00:19:13;19.90;;;11.50;;
58752;SDS011;44525;46.052;13.610;2023-10-09T00:21:47;18.67;;;11.07;;
58752;SDS011;44525;46.052;13.610;2023-10-09T00:24:13;17.52;;;10.68;;
58752;SDS011;44525;46.052;13.610;2023-10-09T00:26:44;15.35;;;10.18;;
58752;SDS011;44525;46.052;13.610;2023-10-09T00:29:11;17.08;;;10.18;;
58752;SDS011;44525;46.052;13.610;2023-10-09T00:31:41;15.48;;;10.85;;
58752;SDS011;44525;46.052;13.610;2023-10-09T00:34:15;17.35;;;9.73;;
58752;SDS011;44525;46.052;13.610;2023-10-09T00:36:45;15.75;;;10.38;;
58752;SDS011;44525;46.052;13.610;2023-10-09T00:39:20;12.95;;;8.40;;
58752;SDS011;44525;46.052;13.610;2023-10-09T00:42:07;14.60;;;7.70;;
58752;SDS011;44525;46.052;13.610;2023-10-09T00:44:32;12.35;;;7.43;;
58752;SDS011;44525;46.052;13.610;2023-10-09T00:47:08;12.57;;;6.57;;
58752;SDS011;44525;46.052;13.610;2023-10-09T00:49:52;15.00;;;6.13;;
58752;SDS011;44525;46.052;13.610;2023-10-09T00:52:26;10.83;;;5.27;;
58752;SDS011;44525;46.052;13.610;2023-10-09T00:54:58;9.88;;;5.28;;
58752;SDS011;44525;46.052;13.610;2023-10-09T00:57:27;9.85;;;5.32;;
58752;SDS011;44525;46.052;13.610;2023-10-09T00:59:54;13.98;;;6.07;;
58752;SDS011;44525;46.052;13.610;2023-10-09T01:02:36;18.35;;;5.65;;
58752;SDS011;44525;46.052;13.610;2023-10-09T01:05:05;12.35;;;4.95;;
58752;SDS011;44525;46.052;13.610;2023-10-09T01:07:45;9.23;;;4.85;;
58752;SDS011;44525;46.052;13.610;2023-10-09T01:10:13;10.90;;;4.70;;
58752;SDS011;44525;46.052;13.610;2023-10-09T01:12:41;11.43;;;4.75;;
58752;SDS011;44525;46.052;13.610;2023-10-09T01:15:09;10.18;;;4.40;;
58752;SDS011;44525;46.052;13.610;2023-10-09T01:17:55;10.80;;;4.43;;
58752;SDS011;44525;46.052;13.610;2023-10-09T01:20:23;10.10;;;4.50;;
58752;SDS011;44525;46.052;13.610;2023-10-09T01:23:01;10.40;;;4.22;;
58752;SDS011;44525;46.052;13.610;2023-10-09T01:25:27;8.25;;;4.50;;
58752;SDS011;44525;46.052;13.610;2023-10-09T01:28:06;8.77;;;4.40;;
58752;SDS011;44525;46.052;13.610;2023-10-09T01:30:32;11.52;;;4.20;;
58752;SDS011;44525;46.052;13.610;2023-10-09T01:32:58;9.82;;;4.13;;
58752;SDS011;44525;46.052;13.610;2023-10-09T01:35:36;8.95;;;4.30;;
58752;SDS011;44525;46.052;13.610;2023-10-09T01:38:11;10.85;;;4.30;;
58752;SDS011;44525;46.052;13.610;2023-10-09T01:40:39;10.57;;;4.38;;
58752;SDS011;44525;46.052;13.610;2023-10-09T01:43:05;9.70;;;4.20;;
58752;SDS011;44525;46.052;13.610;2023-10-09T01:45:34;10.18;;;4.25;;
58752;SDS011;44525;46.052;13.610;2023-10-09T01:48:07;10.15;;;4.35;;
58752;SDS011;44525;46.052;13.610;2023-10-09T01:50:33;10.25;;;4.05;;
58752;SDS011;44525;46.052;13.610;2023-10-09T01:53:01;11.80;;;4.30;;
58752;SDS011;44525;46.052;13.610;2023-10-09T01:55:29;10.75;;;4.35;;
58752;SDS011;44525;46.052;13.610;2023-10-09T01:58:00;11.15;;;3.85;;
58752;SDS011;44525;46.052;13.610;2023-10-09T02:00:49;10.05;;;4.63;;
58752;SDS011;44525;46.052;13.610;2023-10-09T02:03:21;8.07;;;3.78;;
58752;SDS011;44525;46.052;13.610;2023-10-09T02:05:54;10.23;;;4.22;;
58752;SDS011;44525;46.052;13.610;2023-10-09T02:08:24;8.88;;;4.03;;
58752;SDS011;44525;46.052;13.610;2023-10-09T02:10:52;8.75;;;3.88;;
58752;SDS011;44525;46.052;13.610;2023-10-09T02:13:21;7.45;;;3.78;;
58752;SDS011;44525;46.052;13.610;2023-10-09T02:15:55;8.85;;;4.18;;
58752;SDS011;44525;46.052;13.610;2023-10-09T02:18:37;8.37;;;3.87;;
58752;SDS011;44525;46.052;13.610;2023-10-09T02:21:17;9.38;;;4.18;;
58752;SDS011;44525;46.052;13.610;2023-10-09T02:23:53;9.25;;;3.90;;
58752;SDS011;44525;46.052;13.610;2023-10-09T02:26:22;9.93;;;3.85;;
58752;SDS011;44525;46.052;13.610;2023-10-09T02:28:54;7.97;;;3.78;;
58752;SDS011;44525;46.052;13.610;2023-10-09T02:31:40;9.30;;;3.85;;
58752;SDS011;44525;46.052;13.610;2023-10-09T02:34:08;6.57;;;3.42;;
58752;SDS011;44525;46.052;13.610;2023-10-09T02:36:35;7.65;;;3.53;;
58752;SDS011;44525;46.052;13.610;2023-10-09T02:39:06;8.77;;;3.65;;
58752;SDS011;44525;46.052;13.610;2023-10-09T02:41:46;8.30;;;3.83;;
58752;SDS011;44525;46.052;13.610;2023-10-09T02:44:14;14.75;;;4.07;;
58752;SDS011;44525;46.052;13.610;2023-10-09T02:46:40;8.20;;;3.92;;
58752;SDS011;44525;46.052;13.610;2023-10-09T02:49:06;8.23;;;3.70;;
58752;SDS011;44525;46.052;13.610;2023-10-09T02:51:32;6.15;;;3.30;;
58752;SDS011;44525;46.052;13.610;2023-10-09T02:53:59;9.43;;;3.63;;
58752;SDS011;44525;46.052;13.610;2023-10-09T02:56:42;6.18;;;3.70;;
58752;SDS011;44525;46.052;13.610;2023-10-09T02:59:08;9.95;;;4.03;;
58752;SDS011;44525;46.052;13.610;2023-10-09T03:01:35;9.20;;;3.85;;
58752;SDS011;44525;46.052;13.610;2023-10-09T03:04:03;7.68;;;3.58;;
58752;SDS011;44525;46.052;13.610;2023-10-09T03:06:30;8.70;;;3.83;;
58752;SDS011;44525;46.052;13.610;2023-10-09T03:08:57;10.45;;;3.88;;
58752;SDS011;44525;46.052;13.610;2023-10-09T03:11:23;11.60;;;3.60;;
58752;SDS011;44525;46.052;13.610;2023-10-09T03:13:51;9.88;;;3.70;;
58752;SDS011;44525;46.052;13.610;2023-10-09T03:16:17;7.68;;;3.00;;
58752;SDS011;44525;46.052;13.610;2023-10-09T03:18:47;6.82;;;3.63;;
58752;SDS011;44525;46.052;13.610;2023-10-09T03:21:14;9.52;;;4.03;;
58752;SDS011;44525;46.052;13.610;2023-10-09T03:23:42;9.98;;;3.67;;
58752;SDS011;44525;46.052;13.610;2023-10-09T03:26:14;6.15;;;3.38;;
58752;SDS011;44525;46.052;13.610;2023-10-09T03:28:44;5.65;;;3.30;;
58752;SDS011;44525;46.052;13.610;2023-10-09T03:31:10;5.50;;;3.22;;
58752;SDS011;44525;46.052;13.610;2023-10-09T03:33:37;5.35;;;3.30;;
58752;SDS011;44525;46.052;13.610;2023-10-09T03:36:03;6.85;;;3.35;;
58752;SDS011;44525;46.052;13.610;2023-10-09T03:38:32;9.10;;;3.40;;
58752;SDS011;44525;46.052;13.610;2023-10-09T03:41:03;7.35;;;3.45;;
58752;SDS011;44525;46.052;13.610;2023-10-09T03:43:32;7.75;;;3.45;;
58752;SDS011;44525;46.052;13.610;2023-10-09T03:46:09;6.72;;;3.40;;
58752;SDS011;44525;46.052;13.610;2023-10-09T03:49:07;8.57;;;3.42;;
58752;SDS011;44525;46.052;13.610;2023-10-09T03:51:36;7.22;;;3.25;;
58752;SDS011;44525;46.052;13.610;2023-10-09T03:54:02;9.68;;;3.92;;
58752;SDS011;44525;46.052;13.610;2023-10-09T03:56:32;7.55;;;3.40;;
58752;SDS011;44525;46.052;13.610;2023-10-09T03:58:58;10.43;;;3.50;;
58752;SDS011;44525;46.052;13.610;2023-10-09T04:01:23;10.85;;;3.55;;
58752;SDS011;44525;46.052;13.610;2023-10-09T04:03:55;5.97;;;3.10;;
58752;SDS011;44525;46.052;13.610;2023-10-09T04:06:25;11.38;;;3.70;;
58752;SDS011;44525;46.052;13.610;2023-10-09T04:08:57;8.75;;;3.42;;
58752;SDS011;44525;46.052;13.610;2023-10-09T04:11:48;9.32;;;3.90;;
58752;SDS011;44525;46.052;13.610;2023-10-09T04:14:35;7.60;;;3.25;;
58752;SDS011;44525;46.052;13.610;2023-10-09T04:17:01;6.15;;;3.08;;
58752;SDS011;44525;46.052;13.610;2023-10-09T04:22:14;7.80;;;3.25;;
58752;SDS011;44525;46.052;13.610;2023-10-09T04:24:52;6.75;;;3.40;;
58752;SDS011;44525;46.052;13.610;2023-10-09T04:27:18;7.78;;;3.40;;
58752;SDS011;44525;46.052;13.610;2023-10-09T04:29:51;8.95;;;3.42;;
58752;SDS011;44525;46.052;13.610;2023-10-09T04:32:18;9.27;;;3.75;;
58752;SDS011;44525;46.052;13.610;2023-10-09T04:34:44;6.78;;;3.58;;
58752;SDS011;44525;46.052;13.610;2023-10-09T04:37:21;8.77;;;3.45;;
58752;SDS011;44525;46.052;13.610;2023-10-09T04:40:02;9.05;;;3.88;;
58752;SDS011;44525;46.052;13.610;2023-10-09T04:42:59;10.35;;;3.55;;
58752;SDS011;44525;46.052;13.610;2023-10-09T04:45:24;9.50;;;3.47;;
58752;SDS011;44525;46.052;13.610;2023-10-09T04:48:08;7.80;;;3.40;;
58752;SDS011;44525;46.052;13.610;2023-10-09T04:50:34;6.65;;;3.67;;
58752;SDS011;44525;46.052;13.610;2023-10-09T04:53:02;7.00;;;3.67;;
58752;SDS011;44525;46.052;13.610;2023-10-09T04:55:48;8.77;;;3.50;;
58752;SDS011;44525;46.052;13.610;2023-10-09T04:58:22;6.22;;;3.35;;
58752;SDS011;44525;46.052;13.610;2023-10-09T05:00:50;7.28;;;3.40;;
58752;SDS011;44525;46.052;13.610;2023-10-09T05:03:22;6.97;;;3.70;;
58752;SDS011;44525;46.052;13.610;2023-10-09T05:06:06;7.93;;;3.60;;
58752;SDS011;44525;46.052;13.610;2023-10-09T05:09:07;7.55;;;3.50;;
58752;SDS011;44525;46.052;13.610;2023-10-09T05:11:38;5.93;;;3.13;;
58752;SDS011;44525;46.052;13.610;2023-10-09T05:14:19;9.73;;;3.70;;
58752;SDS011;44525;46.052;13.610;2023-10-09T05:17:03;8.23;;;3.67;;
58752;SDS011;44525;46.052;13.610;2023-10-09T05:19:31;7.20;;;3.53;;
58752;SDS011;44525;46.052;13.610;2023-10-09T05:22:19;7.47;;;3.20;;
58752;SDS011;44525;46.052;13.610;2023-10-09T05:24:57;8.73;;;3.55;;
58752;SDS011;44525;46.052;13.610;2023-10-09T05:27:23;8.38;;;3.55;;
58752;SDS011;44525;46.052;13.610;2023-10-09T05:30:07;5.97;;;3.15;;
58752;SDS011;44525;46.052;13.610;2023-10-09T05:35:23;8.15;;;3.47;;
58752;SDS011;44525;46.052;13.610;2023-10-09T05:38:04;7.30;;;3.60;;
58752;SDS011;44525;46.052;13.610;2023-10-09T05:40:48;8.82;;;4.15;;
58752;SDS011;44525;46.052;13.610;2023-10-09T05:43:18;9.60;;;3.63;;
58752;SDS011;44525;46.052;13.610;2023-10-09T05:46:02;8.77;;;3.45;;
58752;SDS011;44525;46.052;13.610;2023-10-09T05:48:34;7.68;;;3.03;;
58752;SDS011;44525;46.052;13.610;2023-10-09T05:51:02;8.68;;;3.30;;
58752;SDS011;44525;46.052;13.610;2023-10-09T05:53:34;6.68;;;3.30;;
58752;SDS011;44525;46.052;13.610;2023-10-09T05:56:11;7.75;;;3.30;;
58752;SDS011;44525;46.052;13.610;2023-10-09T05:58:55;7.68;;;3.20;;
58752;SDS011;44525;46.052;13.610;2023-10-09T06:01:27;7.20;;;3.20;;
58752;SDS011;44525;46.052;13.610;2023-10-09T06:04:10;9.52;;;3.08;;
58752;SDS011;44525;46.052;13.610;2023-10-09T06:06:43;6.27;;;3.43;;
58752;SDS011;44525;46.052;13.610;2023-10-09T06:09:10;8.63;;;3.22;;
58752;SDS011;44525;46.052;13.610;2023-10-09T06:11:43;7.70;;;2.97;;
58752;SDS011;44525;46.052;13.610;2023-10-09T06:14:20;8.50;;;3.75;;
58752;SDS011;44525;46.052;13.610;2023-10-09T06:16:55;8.35;;;3.50;;
58752;SDS011;44525;46.052;13.610;2023-10-09T06:19:36;6.93;;;3.28;;
58752;SDS011;44525;46.052;13.610;2023-10-09T06:22:13;7.05;;;3.30;;
58752;SDS011;44525;46.052;13.610;2023-10-09T06:24:58;8.77;;;3.13;;
58752;SDS011;44525;46.052;13.610;2023-10-09T06:27:33;8.95;;;3.67;;
58752;SDS011;44525;46.052;13.610;2023-10-09T06:29:59;8.45;;;3.30;;
58752;SDS011;44525;46.052;13.610;2023-10-09T06:32:42;6.28;;;3.30;;
58752;SDS011;44525;46.052;13.610;2023-10-09T06:35:33;6.07;;;3.15;;
58752;SDS011;44525;46.052;13.610;2023-10-09T06:38:00;7.93;;;3.30;;
58752;SDS011;44525;46.052;13.610;2023-10-09T06:40:26;8.50;;;3.40;;
58752;SDS011;44525;46.052;13.610;2023-10-09T06:43:14;8.25;;;3.17;;
58752;SDS011;44525;46.052;13.610;2023-10-09T06:45:45;7.03;;;3.13;;
58752;SDS011;44525;46.052;13.610;2023-10-09T06:48:13;11.63;;;3.58;;
58752;SDS011;44525;46.052;13.610;2023-10-09T06:50:58;9.65;;;3.30;;
58752;SDS011;44525;46.052;13.610;2023-10-09T06:53:49;7.47;;;3.30;;
58752;SDS011;44525;46.052;13.610;2023-10-09T06:56:21;6.18;;;2.90;;
58752;SDS011;44525;46.052;13.610;2023-10-09T06:58:58;6.78;;;3.00;;
58752;SDS011;44525;46.052;13.610;2023-10-09T07:01:29;8.38;;;3.20;;
58752;SDS011;44525;46.052;13.610;2023-10-09T07:04:03;11.73;;;3.35;;
58752;SDS011;44525;46.052;13.610;2023-10-09T07:06:46;7.13;;;3.45;;
58752;SDS011;44525;46.052;13.610;2023-10-09T07:09:14;7.70;;;2.92;;
58752;SDS011;44525;46.052;13.610;2023-10-09T07:11:41;8.55;;;3.00;;
58752;SDS011;44525;46.052;13.610;2023-10-09T07:16:37;10.82;;;3.47;;
58752;SDS011;44525;46.052;13.610;2023-10-09T07:19:22;5.45;;;3.03;;
58752;SDS011;44525;46.052;13.610;2023-10-09T07:22:03;6.93;;;2.78;;
58752;SDS011;44525;46.052;13.610;2023-10-09T07:24:29;8.73;;;3.33;;
58752;SDS011;44525;46.052;13.610;2023-10-09T07:27:17;7.38;;;2.97;;
58752;SDS011;44525;46.052;13.610;2023-10-09T07:30:03;4.70;;;2.67;;
58752;SDS011;44525;46.052;13.610;2023-10-09T07:32:48;9.55;;;3.10;;
58752;SDS011;44525;46.052;13.610;2023-10-09T07:35:17;8.18;;;3.15;;
58752;SDS011;44525;46.052;13.610;2023-10-09T07:38:02;6.65;;;3.10;;
58752;SDS011;44525;46.052;13.610;2023-10-09T07:40:28;5.43;;;2.85;;
58752;SDS011;44525;46.052;13.610;2023-10-09T07:42:56;7.10;;;3.00;;
58752;SDS011;44525;46.052;13.610;2023-10-09T07:45:29;8.13;;;2.85;;
58752;SDS011;44525;46.052;13.610;2023-10-09T07:47:58;6.95;;;3.40;;
58752;SDS011;44525;46.052;13.610;2023-10-09T07:50:36;6.45;;;3.20;;
58752;SDS011;44525;46.052;13.610;2023-10-09T07:53:05;8.60;;;3.00;;
58752;SDS011;44525;46.052;13.610;2023-10-09T07:55:43;5.20;;;2.90;;
58752;SDS011;44525;46.052;13.610;2023-10-09T07:58:19;6.75;;;2.90;;
58752;SDS011;44525;46.052;13.610;2023-10-09T08:00:50;8.13;;;3.00;;
58752;SDS011;44525;46.052;13.610;2023-10-09T08:03:40;9.27;;;2.85;;
58752;SDS011;44525;46.052;13.610;2023-10-09T08:06:12;10.48;;;2.78;;
58752;SDS011;44525;46.052;13.610;2023-10-09T08:08:56;6.10;;;3.05;;
58752;SDS011;44525;46.052;13.610;2023-10-09T08:11:38;4.93;;;2.90;;
58752;SDS011;44525;46.052;13.610;2023-10-09T08:14:14;4.38;;;2.70;;
58752;SDS011;44525;46.052;13.610;2023-10-09T08:17:05;8.05;;;3.20;;
58752;SDS011;44525;46.052;13.610;2023-10-09T08:19:47;10.95;;;3.40;;
58752;SDS011;44525;46.052;13.610;2023-10-09T08:22:26;7.68;;;3.22;;
58752;SDS011;44525;46.052;13.610;2023-10-09T08:24:56;5.10;;;2.90;;
58752;SDS011;44525;46.052;13.610;2023-10-09T08:27:25;5.95;;;3.10;;
58752;SDS011;44525;46.052;13.610;2023-10-09T08:30:04;5.97;;;3.00;;
58752;SDS011;44525;46.052;13.610;2023-10-09T08:32:46;5.50;;;3.20;;
58752;SDS011;44525;46.052;13.610;2023-10-09T08:35:28;7.57;;;3.20;;
58752;SDS011;44525;46.052;13.610;2023-10-09T08:38:12;11.02;;;3.03;;
58752;SDS011;44525;46.052;13.610;2023-10-09T08:40:39;7.63;;;3.30;;
58752;SDS011;44525;46.052;13.610;2023-10-09T08:43:09;8.73;;;3.08;;
58752;SDS011;44525;46.052;13.610;2023-10-09T08:45:46;6.35;;;2.85;;
58752;SDS011;44525;46.052;13.610;2023-10-09T08:48:12;8.95;;;3.10;;
58752;SDS011;44525;46.052;13.610;2023-10-09T08:50:41;5.65;;;3.30;;
58752;SDS011;44525;46.052;13.610;2023-10-09T08:53:13;17.38;;;5.78;;
58752;SDS011;44525;46.052;13.610;2023-10-09T08:55:41;12.50;;;4.93;;
58752;SDS011;44525;46.052;13.610;2023-10-09T08:58:07;15.02;;;4.68;;
58752;SDS011;44525;46.052;13.610;2023-10-09T09:00:48;6.45;;;3.20;;
58752;SDS011;44525;46.052;13.610;2023-10-09T09:03:14;9.98;;;3.05;;
58752;SDS011;44525;46.052;13.610;2023-10-09T09:06:02;6.50;;;2.97;;
58752;SDS011;44525;46.052;13.610;2023-10-09T09:08:27;7.85;;;3.30;;
58752;SDS011;44525;46.052;13.610;2023-10-09T09:16:28;8.48;;;3.85;;
58752;SDS011;44525;46.052;13.610;2023-10-09T09:21:30;10.63;;;3.58;;
58752;SDS011;44525;46.052;13.610;2023-10-09T09:24:04;7.85;;;3.35;;
58752;SDS011;44525;46.052;13.610;2023-10-09T09:26:41;10.63;;;3.53;;
58752;SDS011;44525;46.052;13.610;2023-10-09T09:29:11;6.65;;;3.20;;
58752;SDS011;44525;46.052;13.610;2023-10-09T09:31:54;9.32;;;3.50;;
58752;SDS011;44525;46.052;13.610;2023-10-09T09:34:22;8.25;;;3.75;;
58752;SDS011;44525;46.052;13.610;2023-10-09T09:36:54;9.88;;;3.40;;
58752;SDS011;44525;46.052;13.610;2023-10-09T09:39:22;8.05;;;3.35;;
58752;SDS011;44525;46.052;13.610;2023-10-09T09:41:54;9.25;;;3.88;;
58752;SDS011;44525;46.052;13.610;2023-10-09T09:44:32;8.02;;;3.42;;
58752;SDS011;44525;46.052;13.610;2023-10-09T09:47:08;6.70;;;3.10;;
58752;SDS011;44525;46.052;13.610;2023-10-09T09:49:41;7.53;;;2.92;;
58752;SDS011;44525;46.052;13.610;2023-10-09T09:52:08;8.77;;;3.63;;
58752;SDS011;44525;46.052;13.610;2023-10-09T09:54:37;6.85;;;3.42;;
58752;SDS011;44525;46.052;13.610;2023-10-09T09:57:03;8.20;;;3.47;;
58752;SDS011;44525;46.052;13.610;2023-10-09T09:59:40;8.88;;;3.67;;
58752;SDS011;44525;46.052;13.610;2023-10-09T10:02:14;8.90;;;3.42;;
58752;SDS011;44525;46.052;13.610;2023-10-09T10:04:47;9.70;;;3.58;;
58752;SDS011;44525;46.052;13.610;2023-10-09T10:07:15;7.72;;;3.50;;
58752;SDS011;44525;46.052;13.610;2023-10-09T10:09:42;11.93;;;4.20;;
58752;SDS011;44525;46.052;13.610;2023-10-09T10:12:10;9.50;;;3.47;;
58752;SDS011;44525;46.052;13.610;2023-10-09T10:14:52;7.82;;;3.88;;
58752;SDS011;44525;46.052;13.610;2023-10-09T10:17:24;7.40;;;3.60;;
58752;SDS011;44525;46.052;13.610;2023-10-09T10:19:59;8.52;;;3.65;;
58752;SDS011;44525;46.052;13.610;2023-10-09T10:22:29;9.05;;;3.90;;
58752;SDS011;44525;46.052;13.610;2023-10-09T10:24:58;12.60;;;4.65;;
58752;SDS011;44525;46.052;13.610;2023-10-09T10:27:27;6.57;;;4.30;;
58752;SDS011;44525;46.052;13.610;2023-10-09T10:32:56;9.63;;;5.07;;
58752;SDS011;44525;46.052;13.610;2023-10-09T10:35:34;12.32;;;7.47;;
58752;SDS011;44525;46.052;13.610;2023-10-09T10:38:26;13.50;;;7.10;;
58752;SDS011;44525;46.052;13.610;2023-10-09T10:43:37;16.13;;;8.05;;
58752;SDS011;44525;46.052;13.610;2023-10-09T10:46:21;16.67;;;8.88;;
58752;SDS011;44525;46.052;13.610;2023-10-09T10:49:03;16.50;;;8.63;;
58752;SDS011;44525;46.052;13.610;2023-10-09T10:51:50;16.25;;;8.85;;
58752;SDS011;44525;46.052;13.610;2023-10-09T10:54:40;16.67;;;9.00;;
58752;SDS011;44525;46.052;13.610;2023-10-09T10:59:45;16.83;;;9.68;;
58752;SDS011;44525;46.052;13.610;2023-10-09T11:02:10;19.63;;;10.75;;
58752;SDS011;44525;46.052;13.610;2023-10-09T11:04:37;19.17;;;9.88;;
58752;SDS011;44525;46.052;13.610;2023-10-09T11:07:03;17.15;;;10.50;;
58752;SDS011;44525;46.052;13.610;2023-10-09T11:09:53;20.45;;;11.23;;
58752;SDS011;44525;46.052;13.610;2023-10-09T11:12:29;22.02;;;11.45;;
58752;SDS011;44525;46.052;13.610;2023-10-09T11:15:29;21.92;;;11.27;;
58752;SDS011;44525;46.052;13.610;2023-10-09T11:18:15;20.00;;;11.52;;
58752;SDS011;44525;46.052;13.610;2023-10-09T11:20:53;22.60;;;12.32;;
58752;SDS011;44525;46.052;13.610;2023-10-09T11:23:30;20.25;;;11.18;;
58752;SDS011;44525;46.052;13.610;2023-10-09T11:26:00;20.20;;;11.82;;
58752;SDS011;44525;46.052;13.610;2023-10-09T11:28:45;22.15;;;12.18;;
58752;SDS011;44525;46.052;13.610;2023-10-09T11:31:36;22.67;;;11.30;;
58752;SDS011;44525;46.052;13.610;2023-10-09T11:34:03;17.33;;;11.23;;
58752;SDS011;44525;46.052;13.610;2023-10-09T11:36:33;23.60;;;12.32;;
58752;SDS011;44525;46.052;13.610;2023-10-09T11:38:59;18.45;;;12.43;;
58752;SDS011;44525;46.052;13.610;2023-10-09T11:41:41;22.75;;;13.38;;
58752;SDS011;44525;46.052;13.610;2023-10-09T11:44:07;21.42;;;13.75;;
58752;SDS011;44525;46.052;13.610;2023-10-09T11:47:02;29.67;;;16.13;;
58752;SDS011;44525;46.052;13.610;2023-10-09T11:49:57;30.73;;;17.42;;
58752;SDS011;44525;46.052;13.610;2023-10-09T11:52:54;28.67;;;17.20;;
58752;SDS011;44525;46.052;13.610;2023-10-09T11:55:45;27.77;;;17.73;;
58752;SDS011;44525;46.052;13.610;2023-10-09T11:58:14;29.67;;;18.20;;
58752;SDS011;44525;46.052;13.610;2023-10-09T12:00:49;28.50;;;16.58;;
58752;SDS011;44525;46.052;13.610;2023-10-09T12:03:16;26.13;;;18.63;;
58752;SDS011;44525;46.052;13.610;2023-10-09T12:05:42;32.97;;;21.15;;
58752;SDS011;44525;46.052;13.610;2023-10-09T12:08:09;29.88;;;19.23;;
58752;SDS011;44525;46.052;13.610;2023-10-09T12:10:40;29.85;;;18.85;;
58752;SDS011;44525;46.052;13.610;2023-10-09T12:13:06;28.83;;;17.65;;
58752;SDS011;44525;46.052;13.610;2023-10-09T12:15:32;28.63;;;18.40;;
58752;SDS011;44525;46.052;13.610;2023-10-09T12:18:05;29.55;;;18.63;;
58752;SDS011;44525;46.052;13.610;2023-10-09T12:20:34;27.77;;;18.17;;
58752;SDS011;44525;46.052;13.610;2023-10-09T12:23:00;31.58;;;18.58;;
58752;SDS011;44525;46.052;13.610;2023-10-09T12:25:30;33.13;;;18.20;;
58752;SDS011;44525;46.052;13.610;2023-10-09T12:28:00;30.85;;;19.02;;
58752;SDS011;44525;46.052;13.610;2023-10-09T12:30:29;27.38;;;18.35;;
58752;SDS011;44525;46.052;13.610;2023-10-09T12:32:55;24.80;;;17.27;;
58752;SDS011;44525;46.052;13.610;2023-10-09T12:35:25;29.05;;;18.15;;
58752;SDS011;44525;46.052;13.610;2023-10-09T12:37:52;33.28;;;18.83;;
58752;SDS011;44525;46.052;13.610;2023-10-09T12:40:20;29.95;;;16.75;;
58752;SDS011;44525;46.052;13.610;2023-10-09T12:42:49;29.48;;;16.45;;
58752;SDS011;44525;46.052;13.610;2023-10-09T12:45:15;33.35;;;18.80;;
58752;SDS011;44525;46.052;13.610;2023-10-09T12:47:43;31.15;;;19.02;;
58752;SDS011;44525;46.052;13.610;2023-10-09T12:50:08;27.88;;;18.13;;
58752;SDS011;44525;46.052;13.610;2023-10-09T12:52:38;30.90;;;17.52;;
58752;SDS011;44525;46.052;13.610;2023-10-09T12:55:04;26.70;;;15.95;;
58752;SDS011;44525;46.052;13.610;2023-10-09T12:57:33;27.80;;;16.75;;
58752;SDS011;44525;46.052;13.610;2023-10-09T12:59:58;31.33;;;18.25;;
58752;SDS011;44525;46.052;13.610;2023-10-09T13:02:24;27.58;;;17.02;;
58752;SDS011;44525;46.052;13.610;2023-10-09T13:04:55;31.20;;;17.52;;
58752;SDS011;44525;46.052;13.610;2023-10-09T13:07:22;28.13;;;17.42;;
58752;SDS011;44525;46.052;13.610;2023-10-09T13:09:48;24.08;;;16.83;;
58752;SDS011;44525;46.052;13.610;2023-10-09T13:12:32;24.88;;;14.52;;
58752;SDS011;44525;46.052;13.610;2023-10-09T13:14:58;31.73;;;17.67;;
58752;SDS011;44525;46.052;13.610;2023-10-09T13:17:23;27.08;;;16.65;;
58752;SDS011;44525;46.052;13.610;2023-10-09T13:19:52;25.52;;;16.67;;
58752;SDS011;44525;46.052;13.610;2023-10-09T13:22:18;25.60;;;16.58;;
58752;SDS011;44525;46.052;13.610;2023-10-09T13:24:43;26.98;;;16.88;;
58752;SDS011;44525;46.052;13.610;2023-10-09T13:27:13;30.98;;;17.13;;
58752;SDS011;44525;46.052;13.610;2023-10-09T13:29:46;24.92;;;15.35;;
58752;SDS011;44525;46.052;13.610;2023-10-09T13:32:13;26.42;;;16.05;;
58752;SDS011;44525;46.052;13.610;2023-10-09T13:34:39;26.65;;;16.52;;
58752;SDS011;44525;46.052;13.610;2023-10-09T13:37:10;21.70;;;16.52;;
58752;SDS011;44525;46.052;13.610;2023-10-09T13:39:39;27.25;;;15.15;;
58752;SDS011;44525;46.052;13.610;2023-10-09T13:42:17;22.90;;;15.90;;
58752;SDS011;44525;46.052;13.610;2023-10-09T13:44:42;28.33;;;15.48;;
58752;SDS011;44525;46.052;13.610;2023-10-09T13:47:08;31.48;;;17.20;;
58752;SDS011;44525;46.052;13.610;2023-10-09T13:49:44;22.48;;;15.45;;
58752;SDS011;44525;46.052;13.610;2023-10-09T13:52:10;29.17;;;17.58;;
58752;SDS011;44525;46.052;13.610;2023-10-09T13:54:35;24.45;;;16.35;;
58752;SDS011;44525;46.052;13.610;2023-10-09T13:57:01;26.23;;;16.40;;
58752;SDS011;44525;46.052;13.610;2023-10-09T13:59:29;28.80;;;16.75;;
58752;SDS011;44525;46.052;13.610;2023-10-09T14:01:55;26.50;;;17.67;;
58752;SDS011;44525;46.052;13.610;2023-10-09T14:04:21;26.15;;;15.35;;
58752;SDS011;44525;46.052;13.610;2023-10-09T14:06:48;24.73;;;15.57;;
58752;SDS011;44525;46.052;13.610;2023-10-09T14:09:22;25.08;;;15.35;;
58752;SDS011;44525;46.052;13.610;2023-10-09T14:11:57;27.95;;;17.15;;
58752;SDS011;44525;46.052;13.610;2023-10-09T14:17:12;27.15;;;16.25;;
58752;SDS011;44525;46.052;13.610;2023-10-09T14:19:51;27.25;;;16.70;;
58752;SDS011;44525;46.052;13.610;2023-10-09T14:22:18;25.98;;;17.55;;
58752;SDS011;44525;46.052;13.610;2023-10-09T14:24:45;26.52;;;15.38;;
58752;SDS011;44525;46.052;13.610;2023-10-09T14:27:12;26.10;;;15.63;;
58752;SDS011;44525;46.052;13.610;2023-10-09T14:29:46;23.50;;;15.55;;
58752;SDS011;44525;46.052;13.610;2023-10-09T14:32:12;24.48;;;15.45;;
58752;SDS011;44525;46.052;13.610;2023-10-09T14:34:38;23.33;;;16.45;;
58752;SDS011;44525;46.052;13.610;2023-10-09T14:37:08;19.88;;;14.30;;
58752;SDS011;44525;46.052;13.610;2023-10-09T14:39:37;25.15;;;15.45;;
58752;SDS011;44525;46.052;13.610;2023-10-09T14:42:04;26.38;;;16.48;;
58752;SDS011;44525;46.052;13.610;2023-10-09T14:44:34;21.73;;;14.18;;
58752;SDS011;44525;46.052;13.610;2023-10-09T14:47:03;23.67;;;15.50;;
58752;SDS011;44525;46.052;13.610;2023-10-09T14:49:30;22.55;;;15.48;;
58752;SDS011;44525;46.052;13.610;2023-10-09T14:52:00;26.95;;;15.68;;
58752;SDS011;44525;46.052;13.610;2023-10-09T14:54:26;27.45;;;16.48;;
58752;SDS011;44525;46.052;13.610;2023-10-09T14:56:52;25.45;;;15.95;;
58752;SDS011;44525;46.052;13.610;2023-10-09T14:59:19;23.17;;;15.65;;
58752;SDS011;44525;46.052;13.610;2023-10-09T15:01:47;26.58;;;15.25;;
58752;SDS011;44525;46.052;13.610;2023-10-09T15:04:15;26.50;;;16.02;;
58752;SDS011;44525;46.052;13.610;2023-10-09T15:06:41;20.85;;;14.93;;
58752;SDS011;44525;46.052;13.610;2023-10-09T15:09:06;23.25;;;15.85;;
58752;SDS011;44525;46.052;13.610;2023-10-09T15:11:46;20.58;;;14.52;;
58752;SDS011;44525;46.052;13.610;2023-10-09T15:14:13;21.17;;;15.10;;
58752;SDS011;44525;46.052;13.610;2023-10-09T15:16:38;23.02;;;15.40;;
58752;SDS011;44525;46.052;13.610;2023-10-09T15:19:04;27.50;;;16.33;;
58752;SDS011;44525;46.052;13.610;2023-10-09T15:21:30;22.95;;;15.65;;
58752;SDS011;44525;46.052;13.610;2023-10-09T15:23:57;25.00;;;15.63;;